sensor_id;sensor_type;location;lat;lon;timestamp;P1;durP1;ratioP1;P2;durP2;ratioP2
75375;SDS011;63958;52.004;5.908;2023-01-09T00:00:24;0.30;;;0.30;;
75375;SDS011;63958;52.004;5.908;2023-01-09T00:02:53;0.80;;;0.70;;
75375;SDS011;63958;52.004;5.908;2023-01-09T00:05:22;0.75;;;0.60;;
75375;SDS011;63958;52.004;5.908;2023-01-09T00:07:51;0.50;;;0.50;;
75375;SDS011;63958;52.004;5.908;2023-01-09T00:10:20;2.15;;;1.10;;
75375;SDS011;63958;52.004;5.908;2023-01-09T00:12:49;1.05;;;0.70;;
75375;SDS011;63958;52.004;5.908;2023-01-09T00:15:20;1.10;;;0.70;;
75375;SDS011;63958;52.004;5.908;2023-01-09T00:17:49;1.20;;;0.80;;
75375;SDS011;63958;52.004;5.908;2023-01-09T00:20:18;1.20;;;0.60;;
75375;SDS011;63958;52.004;5.908;2023-01-09T00:22:47;0.80;;;0.60;;
75375;SDS011;63958;52.004;5.908;2023-01-09T00:25:16;0.85;;;0.80;;
75375;SDS011;63958;52.004;5.908;2023-01-09T00:27:47;0.90;;;0.40;;
75375;SDS011;63958;52.004;5.908;2023-01-09T00:30:16;0.35;;;0.32;;
75375;SDS011;63958;52.004;5.908;2023-01-09T00:32:48;0.70;;;0.32;;
75375;SDS011;63958;52.004;5.908;2023-01-09T00:35:17;0.55;;;0.55;;
75375;SDS011;63958;52.004;5.908;2023-01-09T00:37:46;0.55;;;0.40;;
75375;SDS011;63958;52.004;5.908;2023-01-09T00:40:15;1.58;;;0.80;;
75375;SDS011;63958;52.004;5.908;2023-01-09T00:42:46;0.52;;;0.40;;
75375;SDS011;63958;52.004;5.908;2023-01-09T00:45:19;0.60;;;0.50;;
75375;SDS011;63958;52.004;5.908;2023-01-09T00:47:56;0.45;;;0.43;;
75375;SDS011;63958;52.004;5.908;2023-01-09T00:50:30;1.80;;;0.60;;
75375;SDS011;63958;52.004;5.908;2023-01-09T00:53:02;0.70;;;0.60;;
75375;SDS011;63958;52.004;5.908;2023-01-09T00:55:36;0.30;;;0.30;;
75375;SDS011;63958;52.004;5.908;2023-01-09T00:58:06;0.45;;;0.30;;
75375;SDS011;63958;52.004;5.908;2023-01-09T01:00:36;0.40;;;0.35;;
75375;SDS011;63958;52.004;5.908;2023-01-09T01:03:07;0.57;;;0.40;;
75375;SDS011;63958;52.004;5.908;2023-01-09T01:05:36;0.47;;;0.43;;
75375;SDS011;63958;52.004;5.908;2023-01-09T01:08:18;0.52;;;0.52;;
75375;SDS011;63958;52.004;5.908;2023-01-09T01:10:47;1.50;;;0.60;;
75375;SDS011;63958;52.004;5.908;2023-01-09T01:13:16;0.55;;;0.40;;
75375;SDS011;63958;52.004;5.908;2023-01-09T01:15:45;1.23;;;0.60;;
75375;SDS011;63958;52.004;5.908;2023-01-09T01:18:17;0.85;;;0.40;;
75375;SDS011;63958;52.004;5.908;2023-01-09T01:20:46;0.40;;;0.40;;
75375;SDS011;63958;52.004;5.908;2023-01-09T01:23:15;0.57;;;0.50;;
75375;SDS011;63958;52.004;5.908;2023-01-09T01:25:44;0.40;;;0.40;;
75375;SDS011;63958;52.004;5.908;2023-01-09T01:28:14;0.50;;;0.40;;
75375;SDS011;63958;52.004;5.908;2023-01-09T01:30:43;0.55;;;0.50;;
75375;SDS011;63958;52.004;5.908;2023-01-09T01:33:12;0.73;;;0.50;;
75375;SDS011;63958;52.004;5.908;2023-01-09T01:35:44;0.90;;;0.68;;
75375;SDS011;63958;52.004;5.908;2023-01-09T01:38:13;0.95;;;0.60;;
75375;SDS011;63958;52.004;5.908;2023-01-09T01:40:42;0.85;;;0.68;;
75375;SDS011;63958;52.004;5.908;2023-01-09T01:43:11;0.98;;;0.63;;
75375;SDS011;63958;52.004;5.908;2023-01-09T01:45:40;0.95;;;0.73;;
75375;SDS011;63958;52.004;5.908;2023-01-09T01:48:09;0.65;;;0.60;;
75375;SDS011;63958;52.004;5.908;2023-01-09T01:50:46;0.50;;;0.50;;
75375;SDS011;63958;52.004;5.908;2023-01-09T01:53:18;0.73;;;0.70;;
75375;SDS011;63958;52.004;5.908;2023-01-09T01:55:54;0.85;;;0.60;;
75375;SDS011;63958;52.004;5.908;2023-01-09T01:58:30;0.98;;;0.70;;
75375;SDS011;63958;52.004;5.908;2023-01-09T02:01:00;0.93;;;0.60;;
75375;SDS011;63958;52.004;5.908;2023-01-09T02:03:30;0.50;;;0.50;;
75375;SDS011;63958;52.004;5.908;2023-01-09T02:06:03;1.55;;;0.88;;
75375;SDS011;63958;52.004;5.908;2023-01-09T02:08:32;0.80;;;0.80;;
75375;SDS011;63958;52.004;5.908;2023-01-09T02:11:01;1.10;;;0.70;;
75375;SDS011;63958;52.004;5.908;2023-01-09T02:13:31;2.42;;;1.08;;
75375;SDS011;63958;52.004;5.908;2023-01-09T02:16:08;0.80;;;0.70;;
75375;SDS011;63958;52.004;5.908;2023-01-09T02:18:47;1.10;;;0.80;;
75375;SDS011;63958;52.004;5.908;2023-01-09T02:21:25;1.15;;;0.80;;
75375;SDS011;63958;52.004;5.908;2023-01-09T02:33:03;1.58;;;0.90;;
75375;SDS011;63958;52.004;5.908;2023-01-09T02:35:51;1.02;;;0.80;;
75375;SDS011;63958;52.004;5.908;2023-01-09T02:38:31;2.38;;;0.80;;
75375;SDS011;63958;52.004;5.908;2023-01-09T02:41:10;1.08;;;0.80;;
75375;SDS011;63958;52.004;5.908;2023-01-09T02:43:44;1.02;;;0.70;;
75375;SDS011;63958;52.004;5.908;2023-01-09T02:46:18;2.15;;;0.93;;
75375;SDS011;63958;52.004;5.908;2023-01-09T02:48:49;2.38;;;1.02;;
75375;SDS011;63958;52.004;5.908;2023-01-09T02:51:20;0.77;;;0.70;;
75375;SDS011;63958;52.004;5.908;2023-01-09T02:54:11;0.70;;;0.70;;
75375;SDS011;63958;52.004;5.908;2023-01-09T02:56:57;2.30;;;1.30;;
75375;SDS011;63958;52.004;5.908;2023-01-09T02:59:41;2.65;;;0.90;;
75375;SDS011;63958;52.004;5.908;2023-01-09T03:02:30;2.33;;;1.05;;
75375;SDS011;63958;52.004;5.908;2023-01-09T03:05:08;2.42;;;1.10;;
75375;SDS011;63958;52.004;5.908;2023-01-09T03:07:41;1.65;;;0.90;;
75375;SDS011;63958;52.004;5.908;2023-01-09T03:10:16;1.63;;;0.90;;
75375;SDS011;63958;52.004;5.908;2023-01-09T03:12:49;1.27;;;0.82;;
75375;SDS011;63958;52.004;5.908;2023-01-09T03:15:23;2.30;;;0.82;;
75375;SDS011;63958;52.004;5.908;2023-01-09T03:17:57;1.45;;;0.82;;
75375;SDS011;63958;52.004;5.908;2023-01-09T03:20:28;3.08;;;1.25;;
75375;SDS011;63958;52.004;5.908;2023-01-09T03:22:59;1.08;;;0.85;;
75375;SDS011;63958;52.004;5.908;2023-01-09T03:25:29;2.17;;;1.10;;
75375;SDS011;63958;52.004;5.908;2023-01-09T03:27:59;1.40;;;0.82;;
75375;SDS011;63958;52.004;5.908;2023-01-09T03:30:31;2.35;;;1.00;;
75375;SDS011;63958;52.004;5.908;2023-01-09T03:33:04;2.05;;;0.93;;
75375;SDS011;63958;52.004;5.908;2023-01-09T03:35:33;2.70;;;0.98;;
75375;SDS011;63958;52.004;5.908;2023-01-09T03:38:02;1.60;;;0.65;;
75375;SDS011;63958;52.004;5.908;2023-01-09T03:40:31;2.40;;;1.35;;
75375;SDS011;63958;52.004;5.908;2023-01-09T03:42:59;2.38;;;1.20;;
75375;SDS011;63958;52.004;5.908;2023-01-09T03:45:28;2.67;;;1.20;;
75375;SDS011;63958;52.004;5.908;2023-01-09T03:47:57;1.42;;;1.00;;
75375;SDS011;63958;52.004;5.908;2023-01-09T03:50:29;1.63;;;0.90;;
75375;SDS011;63958;52.004;5.908;2023-01-09T03:52:58;2.08;;;1.13;;
75375;SDS011;63958;52.004;5.908;2023-01-09T03:55:27;1.98;;;1.00;;
75375;SDS011;63958;52.004;5.908;2023-01-09T03:57:56;1.88;;;1.00;;
75375;SDS011;63958;52.004;5.908;2023-01-09T04:00:24;0.88;;;0.80;;
75375;SDS011;63958;52.004;5.908;2023-01-09T04:02:53;1.15;;;0.85;;
75375;SDS011;63958;52.004;5.908;2023-01-09T04:05:22;1.10;;;0.68;;
75375;SDS011;63958;52.004;5.908;2023-01-09T04:07:54;1.40;;;0.93;;
75375;SDS011;63958;52.004;5.908;2023-01-09T04:10:23;1.00;;;0.73;;
75375;SDS011;63958;52.004;5.908;2023-01-09T04:12:52;1.25;;;0.70;;
75375;SDS011;63958;52.004;5.908;2023-01-09T04:15:21;2.17;;;0.90;;
75375;SDS011;63958;52.004;5.908;2023-01-09T04:17:50;1.77;;;0.90;;
75375;SDS011;63958;52.004;5.908;2023-01-09T04:20:19;3.35;;;1.00;;
75375;SDS011;63958;52.004;5.908;2023-01-09T04:22:48;2.35;;;1.20;;
75375;SDS011;63958;52.004;5.908;2023-01-09T04:25:19;2.20;;;1.20;;
75375;SDS011;63958;52.004;5.908;2023-01-09T04:27:49;3.15;;;1.17;;
75375;SDS011;63958;52.004;5.908;2023-01-09T04:30:18;1.92;;;0.80;;
75375;SDS011;63958;52.004;5.908;2023-01-09T04:32:47;2.85;;;1.00;;
75375;SDS011;63958;52.004;5.908;2023-01-09T04:35:16;1.10;;;0.80;;
75375;SDS011;63958;52.004;5.908;2023-01-09T04:37:46;3.67;;;1.08;;
75375;SDS011;63958;52.004;5.908;2023-01-09T04:40:15;2.50;;;1.15;;
75375;SDS011;63958;52.004;5.908;2023-01-09T04:42:48;2.28;;;1.05;;
75375;SDS011;63958;52.004;5.908;2023-01-09T04:45:17;1.83;;;1.00;;
75375;SDS011;63958;52.004;5.908;2023-01-09T04:47:46;2.17;;;0.90;;
75375;SDS011;63958;52.004;5.908;2023-01-09T04:50:15;3.15;;;1.00;;
75375;SDS011;63958;52.004;5.908;2023-01-09T04:52:44;1.58;;;1.10;;
75375;SDS011;63958;52.004;5.908;2023-01-09T04:55:13;1.58;;;0.95;;
75375;SDS011;63958;52.004;5.908;2023-01-09T04:57:41;4.43;;;1.83;;
75375;SDS011;63958;52.004;5.908;2023-01-09T05:00:13;1.83;;;1.02;;
75375;SDS011;63958;52.004;5.908;2023-01-09T05:02:43;2.65;;;1.35;;
75375;SDS011;63958;52.004;5.908;2023-01-09T05:05:12;2.83;;;1.02;;
75375;SDS011;63958;52.004;5.908;2023-01-09T05:07:41;4.70;;;1.48;;
75375;SDS011;63958;52.004;5.908;2023-01-09T05:10:10;2.03;;;1.10;;
75375;SDS011;63958;52.004;5.908;2023-01-09T05:12:39;3.22;;;1.40;;
75375;SDS011;63958;52.004;5.908;2023-01-09T05:15:08;2.50;;;1.30;;
75375;SDS011;63958;52.004;5.908;2023-01-09T05:17:40;1.73;;;1.08;;
75375;SDS011;63958;52.004;5.908;2023-01-09T05:20:09;2.10;;;1.15;;
75375;SDS011;63958;52.004;5.908;2023-01-09T05:22:38;2.00;;;1.08;;
75375;SDS011;63958;52.004;5.908;2023-01-09T05:25:07;3.20;;;1.50;;
75375;SDS011;63958;52.004;5.908;2023-01-09T05:27:37;2.38;;;1.27;;
75375;SDS011;63958;52.004;5.908;2023-01-09T05:30:09;1.67;;;1.20;;
75375;SDS011;63958;52.004;5.908;2023-01-09T05:32:41;3.13;;;1.10;;
75375;SDS011;63958;52.004;5.908;2023-01-09T05:35:10;2.03;;;1.15;;
75375;SDS011;63958;52.004;5.908;2023-01-09T05:37:39;3.97;;;1.60;;
75375;SDS011;63958;52.004;5.908;2023-01-09T05:40:09;2.42;;;0.93;;
75375;SDS011;63958;52.004;5.908;2023-01-09T05:42:38;3.05;;;1.05;;
75375;SDS011;63958;52.004;5.908;2023-01-09T05:45:08;3.08;;;1.17;;
75375;SDS011;63958;52.004;5.908;2023-01-09T05:47:38;2.50;;;1.20;;
75375;SDS011;63958;52.004;5.908;2023-01-09T05:50:10;2.45;;;1.20;;
75375;SDS011;63958;52.004;5.908;2023-01-09T05:55:08;2.55;;;1.20;;
75375;SDS011;63958;52.004;5.908;2023-01-09T05:57:39;1.23;;;0.93;;
75375;SDS011;63958;52.004;5.908;2023-01-09T06:00:09;1.35;;;0.90;;
75375;SDS011;63958;52.004;5.908;2023-01-09T06:02:38;1.80;;;0.95;;
75375;SDS011;63958;52.004;5.908;2023-01-09T06:05:10;2.22;;;1.40;;
75375;SDS011;63958;52.004;5.908;2023-01-09T06:07:40;3.27;;;1.00;;
75375;SDS011;63958;52.004;5.908;2023-01-09T06:10:10;2.22;;;1.10;;
75375;SDS011;63958;52.004;5.908;2023-01-09T06:12:40;2.92;;;1.23;;
75375;SDS011;63958;52.004;5.908;2023-01-09T06:15:13;1.45;;;0.90;;
75375;SDS011;63958;52.004;5.908;2023-01-09T06:17:44;1.35;;;0.82;;
75375;SDS011;63958;52.004;5.908;2023-01-09T06:20:16;2.10;;;1.17;;
75375;SDS011;63958;52.004;5.908;2023-01-09T06:22:45;1.33;;;1.10;;
75375;SDS011;63958;52.004;5.908;2023-01-09T06:25:16;1.67;;;1.00;;
75375;SDS011;63958;52.004;5.908;2023-01-09T06:27:45;2.72;;;1.10;;
75375;SDS011;63958;52.004;5.908;2023-01-09T06:30:14;2.92;;;0.90;;
75375;SDS011;63958;52.004;5.908;2023-01-09T06:32:44;2.75;;;1.10;;
75375;SDS011;63958;52.004;5.908;2023-01-09T06:35:17;5.05;;;1.60;;
75375;SDS011;63958;52.004;5.908;2023-01-09T06:37:47;2.80;;;1.40;;
75375;SDS011;63958;52.004;5.908;2023-01-09T06:40:16;3.10;;;1.02;;
75375;SDS011;63958;52.004;5.908;2023-01-09T06:42:46;3.28;;;1.00;;
75375;SDS011;63958;52.004;5.908;2023-01-09T06:45:15;4.65;;;1.40;;
75375;SDS011;63958;52.004;5.908;2023-01-09T06:47:44;1.67;;;1.10;;
75375;SDS011;63958;52.004;5.908;2023-01-09T06:50:17;1.92;;;1.10;;
75375;SDS011;63958;52.004;5.908;2023-01-09T06:52:46;2.13;;;1.30;;
75375;SDS011;63958;52.004;5.908;2023-01-09T06:55:15;3.17;;;1.33;;
75375;SDS011;63958;52.004;5.908;2023-01-09T06:57:44;3.92;;;1.58;;
75375;SDS011;63958;52.004;5.908;2023-01-09T07:00:13;3.60;;;1.20;;
75375;SDS011;63958;52.004;5.908;2023-01-09T07:02:43;3.97;;;1.10;;
75375;SDS011;63958;52.004;5.908;2023-01-09T07:05:12;4.25;;;1.20;;
75375;SDS011;63958;52.004;5.908;2023-01-09T07:07:44;4.13;;;1.42;;
75375;SDS011;63958;52.004;5.908;2023-01-09T07:10:12;2.58;;;1.20;;
75375;SDS011;63958;52.004;5.908;2023-01-09T07:12:42;1.95;;;1.00;;
75375;SDS011;63958;52.004;5.908;2023-01-09T07:15:11;4.10;;;1.10;;
75375;SDS011;63958;52.004;5.908;2023-01-09T07:17:40;4.13;;;1.20;;
75375;SDS011;63958;52.004;5.908;2023-01-09T07:20:09;2.67;;;1.23;;
75375;SDS011;63958;52.004;5.908;2023-01-09T07:22:39;3.80;;;1.17;;
75375;SDS011;63958;52.004;5.908;2023-01-09T07:25:10;2.92;;;0.95;;
75375;SDS011;63958;52.004;5.908;2023-01-09T07:27:39;3.90;;;1.30;;
75375;SDS011;63958;52.004;5.908;2023-01-09T07:30:09;6.57;;;1.23;;
75375;SDS011;63958;52.004;5.908;2023-01-09T07:32:39;6.70;;;1.88;;
75375;SDS011;63958;52.004;5.908;2023-01-09T07:35:08;7.90;;;1.00;;
75375;SDS011;63958;52.004;5.908;2023-01-09T07:37:38;2.72;;;0.90;;
75375;SDS011;63958;52.004;5.908;2023-01-09T07:40:10;2.47;;;0.80;;
75375;SDS011;63958;52.004;5.908;2023-01-09T07:45:08;3.05;;;1.15;;
75375;SDS011;63958;52.004;5.908;2023-01-09T07:47:38;3.08;;;0.85;;
75375;SDS011;63958;52.004;5.908;2023-01-09T07:50:08;3.25;;;1.30;;
75375;SDS011;63958;52.004;5.908;2023-01-09T07:52:38;5.50;;;1.30;;
75375;SDS011;63958;52.004;5.908;2023-01-09T07:55:10;2.65;;;1.30;;
75375;SDS011;63958;52.004;5.908;2023-01-09T07:57:39;3.00;;;1.20;;
75375;SDS011;63958;52.004;5.908;2023-01-09T08:00:08;5.85;;;1.27;;
75375;SDS011;63958;52.004;5.908;2023-01-09T08:02:38;4.93;;;1.35;;
75375;SDS011;63958;52.004;5.908;2023-01-09T08:05:07;3.95;;;1.20;;
75375;SDS011;63958;52.004;5.908;2023-01-09T08:07:39;2.00;;;1.10;;
75375;SDS011;63958;52.004;5.908;2023-01-09T08:10:11;6.72;;;1.98;;
75375;SDS011;63958;52.004;5.908;2023-01-09T08:12:43;3.50;;;1.50;;
75375;SDS011;63958;52.004;5.908;2023-01-09T08:15:12;2.60;;;1.30;;
75375;SDS011;63958;52.004;5.908;2023-01-09T08:17:41;3.55;;;1.48;;
75375;SDS011;63958;52.004;5.908;2023-01-09T08:20:12;2.30;;;1.33;;
75375;SDS011;63958;52.004;5.908;2023-01-09T08:22:43;4.95;;;2.47;;
75375;SDS011;63958;52.004;5.908;2023-01-09T08:25:19;5.07;;;1.85;;
75375;SDS011;63958;52.004;5.908;2023-01-09T08:27:48;2.58;;;1.23;;
75375;SDS011;63958;52.004;5.908;2023-01-09T08:30:17;5.70;;;2.00;;
75375;SDS011;63958;52.004;5.908;2023-01-09T08:32:50;2.28;;;1.40;;
75375;SDS011;63958;52.004;5.908;2023-01-09T08:35:20;1.88;;;1.25;;
75375;SDS011;63958;52.004;5.908;2023-01-09T08:37:49;3.58;;;1.42;;
75375;SDS011;63958;52.004;5.908;2023-01-09T08:40:20;3.00;;;1.42;;
75375;SDS011;63958;52.004;5.908;2023-01-09T08:42:49;3.42;;;1.40;;
75375;SDS011;63958;52.004;5.908;2023-01-09T08:45:31;3.28;;;1.70;;
75375;SDS011;63958;52.004;5.908;2023-01-09T08:48:12;3.77;;;1.87;;
75375;SDS011;63958;52.004;5.908;2023-01-09T08:50:41;4.72;;;2.10;;
75375;SDS011;63958;52.004;5.908;2023-01-09T08:53:11;2.80;;;1.58;;
75375;SDS011;63958;52.004;5.908;2023-01-09T08:55:43;1.70;;;1.40;;
75375;SDS011;63958;52.004;5.908;2023-01-09T08:58:11;3.15;;;1.70;;
75375;SDS011;63958;52.004;5.908;2023-01-09T09:00:40;2.47;;;1.23;;
75375;SDS011;63958;52.004;5.908;2023-01-09T09:03:09;2.95;;;1.42;;
75375;SDS011;63958;52.004;5.908;2023-01-09T09:05:38;4.35;;;1.40;;
75375;SDS011;63958;52.004;5.908;2023-01-09T09:08:07;6.20;;;2.25;;
75375;SDS011;63958;52.004;5.908;2023-01-09T09:10:37;3.08;;;1.92;;
75375;SDS011;63958;52.004;5.908;2023-01-09T09:13:08;2.85;;;1.77;;
75375;SDS011;63958;52.004;5.908;2023-01-09T09:15:37;3.47;;;1.55;;
75375;SDS011;63958;52.004;5.908;2023-01-09T09:18:06;3.83;;;1.70;;
75375;SDS011;63958;52.004;5.908;2023-01-09T09:20:36;1.90;;;1.35;;
75375;SDS011;63958;52.004;5.908;2023-01-09T09:23:06;2.53;;;1.52;;
75375;SDS011;63958;52.004;5.908;2023-01-09T09:25:35;2.70;;;1.80;;
75375;SDS011;63958;52.004;5.908;2023-01-09T09:28:05;4.53;;;2.10;;
75375;SDS011;63958;52.004;5.908;2023-01-09T09:30:37;2.47;;;1.90;;
75375;SDS011;63958;52.004;5.908;2023-01-09T09:33:07;2.65;;;1.60;;
75375;SDS011;63958;52.004;5.908;2023-01-09T09:35:36;4.68;;;2.42;;
75375;SDS011;63958;52.004;5.908;2023-01-09T09:38:05;6.63;;;2.60;;
75375;SDS011;63958;52.004;5.908;2023-01-09T09:40:38;2.83;;;2.10;;
75375;SDS011;63958;52.004;5.908;2023-01-09T09:43:31;5.13;;;2.80;;
75375;SDS011;63958;52.004;5.908;2023-01-09T09:46:31;4.53;;;2.55;;
75375;SDS011;63958;52.004;5.908;2023-01-09T09:49:10;4.90;;;2.67;;
75375;SDS011;63958;52.004;5.908;2023-01-09T09:51:59;5.15;;;2.13;;
75375;SDS011;63958;52.004;5.908;2023-01-09T09:54:37;5.10;;;2.45;;
75375;SDS011;63958;52.004;5.908;2023-01-09T09:57:10;5.38;;;3.00;;
75375;SDS011;63958;52.004;5.908;2023-01-09T09:59:44;4.28;;;2.05;;
75375;SDS011;63958;52.004;5.908;2023-01-09T10:02:23;2.85;;;1.65;;
75375;SDS011;63958;52.004;5.908;2023-01-09T10:04:58;3.67;;;1.90;;
75375;SDS011;63958;52.004;5.908;2023-01-09T10:07:34;3.13;;;1.63;;
75375;SDS011;63958;52.004;5.908;2023-01-09T10:10:09;4.18;;;2.47;;
75375;SDS011;63958;52.004;5.908;2023-01-09T10:12:46;5.30;;;2.10;;
75375;SDS011;63958;52.004;5.908;2023-01-09T10:15:24;5.53;;;2.05;;
75375;SDS011;63958;52.004;5.908;2023-01-09T10:18:05;2.33;;;1.60;;
75375;SDS011;63958;52.004;5.908;2023-01-09T10:20:49;4.18;;;1.90;;
75375;SDS011;63958;52.004;5.908;2023-01-09T10:23:30;1.90;;;1.58;;
75375;SDS011;63958;52.004;5.908;2023-01-09T10:26:25;4.32;;;2.00;;
75375;SDS011;63958;52.004;5.908;2023-01-09T10:32:11;5.07;;;3.20;;
75375;SDS011;63958;52.004;5.908;2023-01-09T10:34:56;4.70;;;2.42;;
75375;SDS011;63958;52.004;5.908;2023-01-09T10:37:43;5.70;;;3.00;;
75375;SDS011;63958;52.004;5.908;2023-01-09T10:40:15;5.03;;;2.83;;
75375;SDS011;63958;52.004;5.908;2023-01-09T10:42:50;5.35;;;2.78;;
75375;SDS011;63958;52.004;5.908;2023-01-09T10:47:53;4.45;;;2.55;;
75375;SDS011;63958;52.004;5.908;2023-01-09T10:50:32;3.88;;;2.28;;
75375;SDS011;63958;52.004;5.908;2023-01-09T10:53:04;4.47;;;2.13;;
75375;SDS011;63958;52.004;5.908;2023-01-09T10:55:41;7.00;;;2.00;;
75375;SDS011;63958;52.004;5.908;2023-01-09T10:58:13;3.85;;;1.83;;
75375;SDS011;63958;52.004;5.908;2023-01-09T11:00:44;2.97;;;2.20;;
75375;SDS011;63958;52.004;5.908;2023-01-09T11:03:15;2.90;;;1.55;;
75375;SDS011;63958;52.004;5.908;2023-01-09T11:05:51;2.95;;;1.58;;
75375;SDS011;63958;52.004;5.908;2023-01-09T11:08:23;5.65;;;1.70;;
75375;SDS011;63958;52.004;5.908;2023-01-09T11:10:57;3.60;;;1.88;;
75375;SDS011;63958;52.004;5.908;2023-01-09T11:13:28;1.90;;;1.27;;
75375;SDS011;63958;52.004;5.908;2023-01-09T11:16:05;3.97;;;1.80;;
75375;SDS011;63958;52.004;5.908;2023-01-09T11:18:37;3.00;;;1.75;;
75375;SDS011;63958;52.004;5.908;2023-01-09T11:21:17;5.45;;;1.70;;
75375;SDS011;63958;52.004;5.908;2023-01-09T11:26:53;3.42;;;1.70;;
75375;SDS011;63958;52.004;5.908;2023-01-09T11:30:06;8.20;;;2.13;;
75375;SDS011;63958;52.004;5.908;2023-01-09T11:32:45;5.15;;;1.90;;
75375;SDS011;63958;52.004;5.908;2023-01-09T11:35:25;4.35;;;1.65;;
75375;SDS011;63958;52.004;5.908;2023-01-09T11:38:01;2.78;;;1.88;;
75375;SDS011;63958;52.004;5.908;2023-01-09T11:40:44;4.43;;;1.58;;
75375;SDS011;63958;52.004;5.908;2023-01-09T11:43:19;4.65;;;1.40;;
75375;SDS011;63958;52.004;5.908;2023-01-09T11:45:55;3.15;;;1.65;;
75375;SDS011;63958;52.004;5.908;2023-01-09T11:48:27;2.55;;;1.17;;
75375;SDS011;63958;52.004;5.908;2023-01-09T11:50:59;1.67;;;1.20;;
75375;SDS011;63958;52.004;5.908;2023-01-09T11:53:31;2.55;;;1.08;;
75375;SDS011;63958;52.004;5.908;2023-01-09T11:56:11;1.88;;;1.20;;
75375;SDS011;63958;52.004;5.908;2023-01-09T12:01:16;2.50;;;1.10;;
75375;SDS011;63958;52.004;5.908;2023-01-09T12:04:05;3.25;;;1.20;;
75375;SDS011;63958;52.004;5.908;2023-01-09T12:07:05;4.85;;;2.20;;
75375;SDS011;63958;52.004;5.908;2023-01-09T12:09:58;4.65;;;1.80;;
75375;SDS011;63958;52.004;5.908;2023-01-09T12:12:35;1.33;;;1.00;;
75375;SDS011;63958;52.004;5.908;2023-01-09T12:15:19;4.93;;;1.50;;
75375;SDS011;63958;52.004;5.908;2023-01-09T12:18:09;3.53;;;1.20;;
75375;SDS011;63958;52.004;5.908;2023-01-09T12:23:31;6.13;;;1.65;;
75375;SDS011;63958;52.004;5.908;2023-01-09T12:26:15;2.40;;;1.33;;
75375;SDS011;63958;52.004;5.908;2023-01-09T12:28:51;3.92;;;1.50;;
75375;SDS011;63958;52.004;5.908;2023-01-09T12:31:45;5.10;;;1.70;;
75375;SDS011;63958;52.004;5.908;2023-01-09T12:34:34;5.38;;;1.67;;
75375;SDS011;63958;52.004;5.908;2023-01-09T12:37:13;4.43;;;1.60;;
75375;SDS011;63958;52.004;5.908;2023-01-09T12:39:55;3.15;;;1.20;;
75375;SDS011;63958;52.004;5.908;2023-01-09T12:42:38;4.25;;;1.90;;
75375;SDS011;63958;52.004;5.908;2023-01-09T12:45:26;3.60;;;1.83;;
75375;SDS011;63958;52.004;5.908;2023-01-09T12:48:02;7.30;;;1.75;;
75375;SDS011;63958;52.004;5.908;2023-01-09T12:50:46;4.63;;;2.15;;
75375;SDS011;63958;52.004;5.908;2023-01-09T12:53:31;6.50;;;1.88;;
75375;SDS011;63958;52.004;5.908;2023-01-09T12:56:07;4.45;;;1.40;;
75375;SDS011;63958;52.004;5.908;2023-01-09T12:58:44;3.78;;;1.50;;
75375;SDS011;63958;52.004;5.908;2023-01-09T13:01:17;3.25;;;1.20;;
75375;SDS011;63958;52.004;5.908;2023-01-09T13:03:53;2.30;;;1.10;;
75375;SDS011;63958;52.004;5.908;2023-01-09T13:06:28;4.97;;;1.35;;
75375;SDS011;63958;52.004;5.908;2023-01-09T13:09:04;4.13;;;1.33;;
75375;SDS011;63958;52.004;5.908;2023-01-09T13:11:40;3.10;;;1.23;;
75375;SDS011;63958;52.004;5.908;2023-01-09T13:14:18;4.00;;;1.50;;
75375;SDS011;63958;52.004;5.908;2023-01-09T13:16:51;2.83;;;1.50;;
75375;SDS011;63958;52.004;5.908;2023-01-09T13:19:25;6.95;;;1.55;;
75375;SDS011;63958;52.004;5.908;2023-01-09T13:21:57;7.97;;;2.25;;
75375;SDS011;63958;52.004;5.908;2023-01-09T13:24:26;8.45;;;1.98;;
75375;SDS011;63958;52.004;5.908;2023-01-09T13:27:01;5.20;;;1.88;;
75375;SDS011;63958;52.004;5.908;2023-01-09T13:29:36;7.95;;;1.90;;
75375;SDS011;63958;52.004;5.908;2023-01-09T13:35:11;7.90;;;1.40;;
75375;SDS011;63958;52.004;5.908;2023-01-09T13:37:41;7.03;;;1.90;;
75375;SDS011;63958;52.004;5.908;2023-01-09T13:40:26;5.65;;;1.70;;
75375;SDS011;63958;52.004;5.908;2023-01-09T13:45:32;3.92;;;1.88;;
75375;SDS011;63958;52.004;5.908;2023-01-09T13:54:03;4.82;;;1.20;;
75375;SDS011;63958;52.004;5.908;2023-01-09T13:59:35;4.90;;;1.45;;
75375;SDS011;63958;52.004;5.908;2023-01-09T14:02:08;3.60;;;1.15;;
75375;SDS011;63958;52.004;5.908;2023-01-09T14:05:15;2.40;;;1.00;;
75375;SDS011;63958;52.004;5.908;2023-01-09T14:08:04;3.95;;;1.65;;
75375;SDS011;63958;52.004;5.908;2023-01-09T14:10:45;4.53;;;1.33;;
75375;SDS011;63958;52.004;5.908;2023-01-09T14:13:17;4.93;;;1.13;;
75375;SDS011;63958;52.004;5.908;2023-01-09T14:15:50;2.97;;;1.17;;
75375;SDS011;63958;52.004;5.908;2023-01-09T14:18:23;2.85;;;1.00;;
75375;SDS011;63958;52.004;5.908;2023-01-09T14:20:54;1.85;;;1.00;;
75375;SDS011;63958;52.004;5.908;2023-01-09T14:23:25;3.88;;;1.65;;
75375;SDS011;63958;52.004;5.908;2023-01-09T14:25:57;2.72;;;1.52;;
75375;SDS011;63958;52.004;5.908;2023-01-09T14:28:27;5.65;;;1.75;;
75375;SDS011;63958;52.004;5.908;2023-01-09T14:31:02;2.50;;;1.23;;
75375;SDS011;63958;52.004;5.908;2023-01-09T14:33:35;3.28;;;1.55;;
75375;SDS011;63958;52.004;5.908;2023-01-09T14:36:08;4.72;;;2.58;;
75375;SDS011;63958;52.004;5.908;2023-01-09T14:38:42;3.60;;;0.90;;
75375;SDS011;63958;52.004;5.908;2023-01-09T14:41:17;4.10;;;1.33;;
75375;SDS011;63958;52.004;5.908;2023-01-09T14:44:14;3.28;;;0.80;;
75375;SDS011;63958;52.004;5.908;2023-01-09T14:46:52;1.55;;;0.75;;
75375;SDS011;63958;52.004;5.908;2023-01-09T14:49:27;3.85;;;1.20;;
75375;SDS011;63958;52.004;5.908;2023-01-09T14:52:01;2.15;;;0.90;;
75375;SDS011;63958;52.004;5.908;2023-01-09T14:54:36;1.95;;;0.90;;
75375;SDS011;63958;52.004;5.908;2023-01-09T14:57:21;2.13;;;0.90;;
75375;SDS011;63958;52.004;5.908;2023-01-09T14:59:58;0.57;;;0.57;;
75375;SDS011;63958;52.004;5.908;2023-01-09T15:02:28;1.77;;;0.80;;
75375;SDS011;63958;52.004;5.908;2023-01-09T15:05:03;3.28;;;1.25;;
75375;SDS011;63958;52.004;5.908;2023-01-09T15:07:35;1.67;;;0.80;;
75375;SDS011;63958;52.004;5.908;2023-01-09T15:10:11;1.02;;;0.75;;
75375;SDS011;63958;52.004;5.908;2023-01-09T15:12:44;1.80;;;0.90;;
75375;SDS011;63958;52.004;5.908;2023-01-09T15:15:14;0.93;;;0.85;;
75375;SDS011;63958;52.004;5.908;2023-01-09T15:17:47;2.00;;;0.90;;
75375;SDS011;63958;52.004;5.908;2023-01-09T15:20:24;2.33;;;0.90;;
75375;SDS011;63958;52.004;5.908;2023-01-09T15:22:56;3.97;;;1.00;;
75375;SDS011;63958;52.004;5.908;2023-01-09T15:25:27;1.00;;;0.82;;
75375;SDS011;63958;52.004;5.908;2023-01-09T15:27:58;3.58;;;1.10;;
75375;SDS011;63958;52.004;5.908;2023-01-09T15:30:29;2.63;;;1.10;;
75375;SDS011;63958;52.004;5.908;2023-01-09T15:35:37;3.13;;;1.38;;
75375;SDS011;63958;52.004;5.908;2023-01-09T15:38:09;3.90;;;1.13;;
75375;SDS011;63958;52.004;5.908;2023-01-09T15:40:41;1.58;;;0.82;;
75375;SDS011;63958;52.004;5.908;2023-01-09T15:43:10;2.90;;;0.95;;
75375;SDS011;63958;52.004;5.908;2023-01-09T15:45:39;2.28;;;1.08;;
75375;SDS011;63958;52.004;5.908;2023-01-09T15:48:14;2.28;;;1.27;;
75375;SDS011;63958;52.004;5.908;2023-01-09T15:50:51;3.25;;;1.10;;
75375;SDS011;63958;52.004;5.908;2023-01-09T15:53:24;4.50;;;1.10;;
75375;SDS011;63958;52.004;5.908;2023-01-09T15:56:05;1.75;;;1.00;;
75375;SDS011;63958;52.004;5.908;2023-01-09T15:58:44;2.00;;;1.20;;
75375;SDS011;63958;52.004;5.908;2023-01-09T16:01:20;1.80;;;0.90;;
75375;SDS011;63958;52.004;5.908;2023-01-09T16:04:02;2.47;;;1.00;;
75375;SDS011;63958;52.004;5.908;2023-01-09T16:06:40;3.88;;;1.50;;
75375;SDS011;63958;52.004;5.908;2023-01-09T16:09:14;2.20;;;0.90;;